Time;durP1;ratioP1;P1;durP2;ratioP2;P2;SDS_P1;SDS_P2;PMS_P1;PMS_P2;Temp;Humidity;BMP_temperature;BMP_pressure;BME280_temperature;BME280_humidity;BME280_pressure;Samples;Min_cycle;Max_cycle;Signal;HPM_P1;HPM_P2
2021/03/11 00:00:36;;;;;;;10.90;8.30;;;7.40;93.10;;;;;;5014843;28;20545;-92
2021/03/11 00:03:02;;;;;;;10.60;7.87;;;7.50;93.10;;;;;;5014348;28;20848;-92
2021/03/11 00:05:29;;;;;;;10.70;7.73;;;7.50;93.50;;;;;;5014066;28;20581;-92
2021/03/11 00:07:57;;;;;;;14.30;8.17;;;7.50;93.30;;;;;;5026963;28;20446;-90
2021/03/11 00:10:24;;;;;;;11.43;7.40;;;7.40;93.20;;;;;;5036194;28;20426;-90
2021/03/11 00:12:51;;;;;;;14.07;7.80;;;7.50;93.10;;;;;;5019365;28;20435;-91
2021/03/11 00:15:22;;;;;;;13.60;8.27;;;7.50;93.80;;;;;;4979403;28;20513;-92
2021/03/11 00:17:48;;;;;;;10.90;7.57;;;7.40;93.10;;;;;;5014344;28;20534;-92
2021/03/11 00:20:17;;;;;;;13.70;8.30;;;7.40;93.50;;;;;;5013759;28;20466;-92
2021/03/11 00:22:43;;;;;;;9.80;7.07;;;7.40;93.30;;;;;;5015729;28;20537;-92
2021/03/11 00:25:12;;;;;;;11.77;7.60;;;7.40;93.30;;;;;;5017963;28;20235;-92
2021/03/11 00:27:40;;;;;;;10.47;7.40;;;7.50;93.20;;;;;;5030035;28;20454;-92
2021/03/11 00:30:09;;;;;;;12.23;7.63;;;7.60;92.60;;;;;;5028891;28;20446;-89
2021/03/11 00:32:37;;;;;;;10.40;7.83;;;7.60;92.80;;;;;;5030151;28;20454;-91
2021/03/11 00:35:05;;;;;;;9.50;7.53;;;7.60;92.80;;;;;;5028981;28;20481;-93
2021/03/11 00:37:31;;;;;;;8.40;7.33;;;7.60;92.80;;;;;;5016862;28;20466;-93
2021/03/11 00:39:58;;;;;;;11.67;8.00;;;7.70;92.60;;;;;;5018985;28;20542;-92
2021/03/11 00:42:24;;;;;;;10.68;7.80;;;7.70;92.50;;;;;;5019070;28;20529;-93
2021/03/11 00:44:50;;;;;;;12.47;8.73;;;7.70;92.60;;;;;;5017869;28;20310;-93
2021/03/11 00:47:17;;;;;;;10.00;6.53;;;7.70;92.80;;;;;;4999660;28;20486;-93
2021/03/11 00:49:44;;;;;;;8.17;6.63;;;7.70;93.30;;;;;;5017751;28;20957;-93
2021/03/11 00:52:12;;;;;;;7.93;6.30;;;7.80;92.60;;;;;;5018391;28;20522;-95
2021/03/11 00:54:38;;;;;;;11.40;7.37;;;7.80;92.50;;;;;;5018680;28;20457;-93
2021/03/11 00:57:05;;;;;;;15.17;7.00;;;7.80;92.20;;;;;;5020331;28;20844;-93
2021/03/11 00:59:31;;;;;;;10.63;6.97;;;7.90;92.30;;;;;;5019964;28;20508;-91
2021/03/11 01:01:58;;;;;;;11.30;7.00;;;8.00;92.50;;;;;;5014534;28;20490;-92
2021/03/11 01:04:24;;;;;;;12.40;8.17;;;8.10;92.50;;;;;;5017828;28;20486;-91
2021/03/11 01:06:52;;;;;;;10.73;7.80;;;8.20;92.00;;;;;;5019025;28;20537;-91
2021/03/11 01:09:19;;;;;;;8.67;6.93;;;8.30;92.50;;;;;;5020051;28;20478;-92
2021/03/11 01:11:45;;;;;;;12.80;6.90;;;8.40;92.00;;;;;;5017226;28;20545;-87
2021/03/11 01:14:12;;;;;;;12.17;7.43;;;8.50;91.90;;;;;;5018597;28;20551;-90
2021/03/11 01:16:38;;;;;;;8.77;6.60;;;8.50;91.90;;;;;;5018142;28;20533;-88
2021/03/11 01:19:05;;;;;;;10.60;7.73;;;8.50;91.60;;;;;;5036661;28;20462;-86
2021/03/11 01:21:31;;;;;;;14.50;8.27;;;8.50;91.70;;;;;;5036264;28;20447;-86
2021/03/11 01:23:58;;;;;;;10.17;6.73;;;8.60;91.60;;;;;;5020539;28;20518;-86
2021/03/11 01:26:25;;;;;;;15.33;7.77;;;8.50;91.90;;;;;;5032805;28;20462;-85
2021/03/11 01:28:52;;;;;;;9.30;6.97;;;8.50;92.20;;;;;;5038954;28;20809;-86
2021/03/11 01:31:18;;;;;;;10.67;7.60;;;8.50;92.50;;;;;;5038599;28;20445;-86
2021/03/11 01:33:44;;;;;;;10.80;7.00;;;8.50;92.50;;;;;;5020036;28;20457;-87
2021/03/11 01:36:11;;;;;;;9.43;6.60;;;8.50;93.00;;;;;;5017734;28;20830;-85
2021/03/11 01:38:37;;;;;;;10.90;6.90;;;8.50;93.10;;;;;;5016123;28;20458;-87
2021/03/11 01:41:04;;;;;;;13.60;7.90;;;8.40;93.00;;;;;;5015571;28;20493;-86
2021/03/11 01:43:31;;;;;;;10.63;7.90;;;8.40;93.00;;;;;;5015585;28;20997;-87
2021/03/11 01:45:57;;;;;;;10.57;6.83;;;8.50;93.00;;;;;;5014431;28;20922;-86
2021/03/11 01:48:23;;;;;;;7.63;6.07;;;8.40;92.90;;;;;;5015085;28;20545;-86
2021/03/11 01:50:50;;;;;;;11.23;5.80;;;8.50;92.80;;;;;;5013939;28;20477;-85
2021/03/11 01:53:16;;;;;;;8.07;5.83;;;8.50;92.60;;;;;;5015245;28;21037;-86
2021/03/11 01:55:43;;;;;;;6.70;5.80;;;8.60;92.30;;;;;;5014982;28;20486;-88
2021/03/11 01:58:12;;;;;;;8.87;5.33;;;8.60;92.40;;;;;;5015192;28;20482;-86
2021/03/11 02:00:38;;;;;;;8.93;5.77;;;8.70;92.40;;;;;;5013701;28;20494;-86
2021/03/11 02:03:05;;;;;;;9.87;6.30;;;8.70;92.60;;;;;;5014619;28;20451;-86
2021/03/11 02:05:32;;;;;;;6.13;4.77;;;8.60;92.90;;;;;;5013723;28;20512;-85
2021/03/11 02:07:58;;;;;;;7.40;5.90;;;8.60;92.80;;;;;;5014656;28;20497;-86
2021/03/11 02:10:26;;;;;;;8.83;5.83;;;8.60;92.80;;;;;;5014492;28;20550;-85
2021/03/11 02:13:19;;;;;;;7.70;5.90;;;8.60;92.90;;;;;;5013890;28;20549;-87
2021/03/11 02:15:49;;;;;;;5.00;4.50;;;8.60;93.10;;;;;;5013298;28;20545;-86
2021/03/11 02:18:20;;;;;;;6.23;4.87;;;8.70;93.30;;;;;;5013751;28;20491;-88
2021/03/11 02:20:53;;;;;;;7.47;4.23;;;8.70;93.60;;;;;;5014390;28;20530;-85
2021/03/11 02:23:57;;;;;;;5.07;4.20;;;8.70;93.90;;;;;;5014441;28;20806;-86
2021/03/11 02:26:46;;;;;;;4.80;3.70;;;8.70;93.80;;;;;;5014339;28;20953;-85
2021/03/11 02:29:16;;;;;;;6.67;3.93;;;8.70;94.10;;;;;;5014327;28;20454;-84
2021/03/11 02:31:44;;;;;;;5.40;4.70;;;8.70;94.40;;;;;;5012945;28;20549;-85
2021/03/11 02:34:16;;;;;;;7.83;3.53;;;8.60;94.30;;;;;;5014003;28;21017;-84
2021/03/11 02:36:44;;;;;;;6.20;3.90;;;8.60;95.00;;;;;;5013943;28;20557;-84
2021/03/11 02:39:14;;;;;;;9.53;5.50;;;8.60;94.50;;;;;;5014076;28;20579;-84
2021/03/11 02:41:43;;;;;;;7.53;4.33;;;8.50;94.60;;;;;;5013954;28;20533;-84
2021/03/11 02:44:11;;;;;;;7.77;5.50;;;8.50;94.50;;;;;;5013875;28;20486;-85
2021/03/11 02:46:41;;;;;;;6.50;4.80;;;8.40;94.70;;;;;;5012621;28;20478;-84
2021/03/11 02:49:08;;;;;;;7.37;4.70;;;8.40;94.70;;;;;;5013009;28;20497;-84
2021/03/11 02:51:34;;;;;;;6.77;5.43;;;8.40;94.60;;;;;;5013927;28;20483;-84
2021/03/11 02:54:02;;;;;;;5.93;5.30;;;8.40;94.60;;;;;;5013598;28;20795;-83
2021/03/11 02:56:28;;;;;;;7.10;5.30;;;8.40;94.80;;;;;;5013529;28;20451;-84
2021/03/11 02:58:56;;;;;;;10.23;5.77;;;8.40;94.70;;;;;;5013581;28;20545;-84
2021/03/11 03:01:22;;;;;;;6.40;5.00;;;8.40;94.60;;;;;;5011808;28;20537;-86
2021/03/11 03:03:50;;;;;;;9.43;5.43;;;8.30;94.60;;;;;;5013273;28;20475;-86
2021/03/11 03:06:17;;;;;;;11.83;6.40;;;8.30;94.60;;;;;;5012625;28;21017;-85
2021/03/11 03:08:44;;;;;;;8.80;6.50;;;8.30;94.50;;;;;;5013563;28;20553;-85
2021/03/11 03:11:11;;;;;;;7.83;5.90;;;8.30;94.70;;;;;;5013671;28;20537;-86
2021/03/11 03:13:40;;;;;;;8.87;5.37;;;8.30;94.70;;;;;;5013138;28;20557;-86
2021/03/11 03:16:07;;;;;;;8.57;6.23;;;8.30;94.60;;;;;;5012427;28;20945;-87
2021/03/11 03:18:35;;;;;;;10.40;5.30;;;8.30;94.20;;;;;;5013200;28;20446;-86
2021/03/11 03:21:06;;;;;;;8.63;6.30;;;8.30;94.30;;;;;;5012966;28;20546;-85
2021/03/11 03:23:33;;;;;;;9.00;6.13;;;8.30;93.90;;;;;;4993536;28;20521;-85
2021/03/11 03:25:59;;;;;;;8.40;5.80;;;8.30;94.10;;;;;;4993654;28;20590;-86
2021/03/11 03:28:26;;;;;;;7.63;5.37;;;8.30;94.20;;;;;;4993821;28;20534;-86
2021/03/11 03:30:52;;;;;;;8.07;5.40;;;8.30;94.00;;;;;;4992472;28;20462;-86
2021/03/11 03:33:19;;;;;;;7.50;5.50;;;8.50;93.40;;;;;;4993714;28;20574;-86
2021/03/11 03:35:46;;;;;;;7.67;5.63;;;8.50;93.10;;;;;;4993435;28;20625;-87
2021/03/11 03:38:15;;;;;;;9.90;6.17;;;8.50;93.20;;;;;;4993526;28;20482;-86
2021/03/11 03:40:42;;;;;;;6.60;4.60;;;8.60;93.10;;;;;;4993553;28;20451;-86
2021/03/11 03:43:13;;;;;;;6.00;4.97;;;8.60;92.90;;;;;;4993856;28;20482;-86
2021/03/11 03:45:41;;;;;;;8.93;5.23;;;8.90;94.10;;;;;;4992237;28;20591;-85
2021/03/11 03:48:11;;;;;;;8.80;5.70;;;8.50;94.70;;;;;;4993680;28;20552;-86
2021/03/11 03:50:39;;;;;;;9.30;6.20;;;8.50;95.30;;;;;;5010781;28;20557;-86
2021/03/11 03:53:15;;;;;;;6.50;4.80;;;8.50;95.10;;;;;;5013320;28;20546;-85
2021/03/11 03:55:44;;;;;;;8.43;5.70;;;8.50;94.60;;;;;;5012921;28;20596;-85
2021/03/11 03:58:13;;;;;;;5.87;4.10;;;8.50;94.60;;;;;;5013169;28;20450;-86
2021/03/11 04:00:41;;;;;;;8.13;5.03;;;8.50;94.20;;;;;;5011828;28;20554;-86
2021/03/11 04:03:08;;;;;;;6.13;4.33;;;8.60;94.10;;;;;;5012990;28;20541;-86
2021/03/11 04:05:35;;;;;;;7.30;5.13;;;8.70;93.70;;;;;;5012610;28;20557;-86
2021/03/11 04:08:03;;;;;;;7.00;4.80;;;8.70;94.00;;;;;;5012221;28;20466;-87
2021/03/11 04:10:30;;;;;;;6.80;4.20;;;8.70;93.20;;;;;;5012974;28;20521;-85
2021/03/11 04:12:58;;;;;;;5.90;4.40;;;8.70;93.00;;;;;;5013840;28;21081;-85
2021/03/11 04:15:25;;;;;;;5.70;3.73;;;8.80;93.10;;;;;;5015553;28;21286;-84
2021/03/11 04:17:51;;;;;;;4.40;3.97;;;8.80;93.20;;;;;;5016754;28;20549;-85
2021/03/11 04:20:18;;;;;;;9.40;5.87;;;8.80;92.90;;;;;;5015763;28;20903;-86
2021/03/11 04:22:46;;;;;;;6.37;4.87;;;8.90;93.10;;;;;;5017060;28;20541;-86
2021/03/11 04:25:12;;;;;;;6.87;4.37;;;8.90;93.10;;;;;;5017254;28;20579;-87
2021/03/11 04:27:39;;;;;;;8.70;4.07;;;8.90;92.90;;;;;;5016792;28;20497;-87
2021/03/11 04:30:08;;;;;;;4.47;4.07;;;9.00;93.10;;;;;;5016608;28;20489;-87
2021/03/11 04:32:36;;;;;;;5.87;3.90;;;8.90;93.30;;;;;;5016097;28;20868;-88
2021/03/11 04:35:03;;;;;;;5.10;4.03;;;8.90;93.40;;;;;;5016195;28;20490;-87
2021/03/11 04:37:31;;;;;;;8.70;4.30;;;8.90;93.60;;;;;;5016623;28;20458;-87
2021/03/11 04:39:58;;;;;;;5.23;3.63;;;9.00;94.00;;;;;;5016676;28;20486;-86
2021/03/11 04:42:24;;;;;;;16.50;4.17;;;8.90;93.80;;;;;;5017700;28;20458;-86
2021/03/11 04:44:51;;;;;;;4.30;3.90;;;9.00;93.90;;;;;;5016394;28;21076;-86
2021/03/11 04:47:19;;;;;;;6.63;3.63;;;9.00;94.00;;;;;;5015279;28;20505;-87
2021/03/11 04:49:46;;;;;;;5.13;3.70;;;9.00;94.10;;;;;;5015537;28;20863;-86
2021/03/11 04:52:15;;;;;;;5.87;4.10;;;9.00;94.60;;;;;;5016588;28;20535;-87
2021/03/11 04:54:41;;;;;;;6.57;4.60;;;9.00;94.40;;;;;;5016576;28;20465;-86
2021/03/11 04:57:08;;;;;;;3.73;3.33;;;9.00;95.20;;;;;;5016198;28;21021;-85
2021/03/11 04:59:36;;;;;;;4.20;2.70;;;9.10;95.00;;;;;;5016275;28;20472;-88
2021/03/11 05:02:06;;;;;;;7.37;3.30;;;9.10;95.60;;;;;;5015218;28;20462;-86
2021/03/11 05:04:34;;;;;;;5.40;3.00;;;9.20;95.90;;;;;;5016016;28;20545;-86
2021/03/11 05:07:01;;;;;;;3.90;2.70;;;9.30;95.90;;;;;;5015842;28;20477;-87
2021/03/11 05:09:27;;;;;;;2.73;2.50;;;9.40;96.10;;;;;;5016387;28;20545;-86
2021/03/11 05:11:54;;;;;;;6.10;3.50;;;9.50;96.20;;;;;;5015686;28;20454;-86
2021/03/11 05:14:20;;;;;;;3.60;3.00;;;9.50;96.60;;;;;;5016582;28;20545;-85
2021/03/11 05:16:47;;;;;;;3.40;2.60;;;9.60;96.70;;;;;;5015903;28;20545;-83
2021/03/11 05:19:13;;;;;;;3.23;2.20;;;9.70;96.80;;;;;;5015366;28;20557;-82
2021/03/11 05:21:40;;;;;;;3.53;2.20;;;9.70;96.80;;;;;;5015540;28;20453;-83
2021/03/11 05:24:08;;;;;;;6.03;2.70;;;9.80;96.90;;;;;;5015342;28;20455;-83
2021/03/11 05:26:34;;;;;;;3.13;2.33;;;9.80;97.00;;;;;;5015406;28;20581;-81
2021/03/11 05:29:01;;;;;;;3.23;2.27;;;9.80;97.00;;;;;;5023040;28;20467;-81
2021/03/11 05:31:27;;;;;;;4.80;2.60;;;9.90;97.10;;;;;;5033247;28;20435;-81
2021/03/11 05:33:54;;;;;;;2.90;2.30;;;9.90;97.20;;;;;;5026197;28;20474;-83
2021/03/11 05:36:20;;;;;;;4.73;2.40;;;10.00;97.00;;;;;;5017308;28;20509;-84
2021/03/11 05:38:47;;;;;;;2.50;2.30;;;10.10;96.60;;;;;;5035426;28;20450;-81
2021/03/11 05:41:14;;;;;;;3.27;2.40;;;10.00;96.50;;;;;;5036582;28;20462;-82
2021/03/11 05:43:42;;;;;;;2.70;2.20;;;10.00;96.60;;;;;;5033242;28;20440;-83
2021/03/11 05:46:10;;;;;;;3.50;2.50;;;10.10;96.70;;;;;;5016879;28;20490;-82
2021/03/11 05:48:39;;;;;;;4.33;2.80;;;10.10;96.70;;;;;;5012509;28;20487;-84
2021/03/11 05:51:07;;;;;;;4.50;2.90;;;10.10;96.80;;;;;;4996198;28;20482;-85
2021/03/11 05:53:36;;;;;;;3.07;2.30;;;10.10;96.60;;;;;;4996910;28;20509;-83
2021/03/11 05:56:04;;;;;;;3.50;2.63;;;10.10;96.70;;;;;;4995605;28;21027;-84
2021/03/11 05:58:31;;;;;;;2.77;2.50;;;10.10;96.80;;;;;;4996051;28;20601;-85
2021/03/11 06:00:58;;;;;;;2.73;2.50;;;10.10;96.90;;;;;;4994848;28;20490;-82
2021/03/11 06:03:27;;;;;;;4.63;2.70;;;10.10;96.90;;;;;;4995514;28;20538;-86
2021/03/11 06:05:53;;;;;;;4.30;2.50;;;10.10;96.90;;;;;;4995378;28;20933;-86
2021/03/11 06:08:22;;;;;;;2.40;1.70;;;10.30;97.10;;;;;;5010874;28;20506;-84
2021/03/11 06:10:54;;;;;;;2.67;1.90;;;10.20;97.10;;;;;;5016830;28;20459;-84
2021/03/11 06:13:36;;;;;;;5.80;2.77;;;10.20;97.00;;;;;;5017775;28;20501;-88
2021/03/11 06:16:08;;;;;;;3.53;2.83;;;10.20;97.10;;;;;;5036135;28;20438;-86
2021/03/11 06:18:36;;;;;;;4.03;2.23;;;10.30;97.20;;;;;;5038645;28;20446;-84
2021/03/11 06:21:03;;;;;;;2.37;1.80;;;10.20;97.30;;;;;;5039234;28;20478;-84
2021/03/11 06:23:29;;;;;;;3.23;2.40;;;10.20;97.40;;;;;;5019152;28;20961;-85
2021/03/11 06:25:57;;;;;;;3.87;2.57;;;10.20;97.30;;;;;;5016027;28;20498;-85
2021/03/11 06:28:53;;;;;;;2.40;2.20;;;10.40;97.40;;;;;;5014977;28;20534;-87
2021/03/11 06:31:21;;;;;;;2.00;1.87;;;10.40;97.30;;;;;;5015251;28;20490;-85
2021/03/11 06:33:48;;;;;;;3.53;3.03;;;10.30;97.50;;;;;;5014487;28;20518;-86
2021/03/11 06:36:15;;;;;;;2.33;2.17;;;10.30;97.60;;;;;;5013612;28;20585;-85
2021/03/11 06:38:41;;;;;;;5.70;2.27;;;10.30;97.60;;;;;;5014519;28;20490;-83
2021/03/11 06:41:08;;;;;;;3.00;2.30;;;10.30;97.80;;;;;;5014326;28;20478;-85
2021/03/11 06:43:35;;;;;;;3.03;2.20;;;10.30;97.80;;;;;;5013316;28;20877;-81
2021/03/11 06:46:07;;;;;;;3.33;2.73;;;10.30;97.70;;;;;;5012575;28;20498;-84
2021/03/11 06:48:34;;;;;;;3.37;2.20;;;10.40;97.80;;;;;;5013819;28;20490;-82
2021/03/11 06:51:03;;;;;;;4.47;2.10;;;10.50;97.50;;;;;;5014086;28;20917;-84
2021/03/11 06:53:30;;;;;;;3.63;2.17;;;10.60;97.60;;;;;;5014455;28;20458;-83
2021/03/11 06:56:18;;;;;;;3.13;1.70;;;10.50;97.40;;;;;;5013977;28;20478;-88
2021/03/11 06:58:53;;;;;;;2.77;2.07;;;10.50;97.30;;;;;;5015266;28;20513;-87
2021/03/11 07:01:21;;;;;;;3.07;2.30;;;10.60;97.30;;;;;;5016974;28;20505;-86
2021/03/11 07:03:48;;;;;;;3.73;1.40;;;10.70;97.00;;;;;;5014205;28;20564;-85
2021/03/11 07:06:29;;;;;;;2.13;1.73;;;10.70;96.90;;;;;;5013673;28;21017;-85
2021/03/11 07:08:57;;;;;;;2.80;2.07;;;10.80;96.70;;;;;;5013247;28;20470;-85
2021/03/11 07:11:27;;;;;;;2.43;1.80;;;10.90;96.50;;;;;;5013980;28;20992;-86
2021/03/11 07:13:55;;;;;;;2.23;2.03;;;10.90;96.40;;;;;;5013310;28;20486;-86
2021/03/11 07:16:24;;;;;;;2.33;1.80;;;10.90;96.80;;;;;;5015795;28;20553;-87
2021/03/11 07:19:10;;;;;;;1.63;1.40;;;11.00;96.30;;;;;;5014505;28;20483;-83
2021/03/11 07:21:42;;;;;;;1.70;1.60;;;11.10;96.00;;;;;;5015430;28;20334;-87
2021/03/11 07:24:10;;;;;;;2.30;1.83;;;11.10;96.00;;;;;;5015104;28;20953;-88
2021/03/11 07:26:38;;;;;;;2.27;1.70;;;11.20;95.90;;;;;;5014027;28;21083;-85
2021/03/11 07:29:18;;;;;;;2.50;1.80;;;11.20;95.80;;;;;;5013881;28;20486;-89
2021/03/11 07:31:53;;;;;;;1.50;1.40;;;11.30;95.80;;;;;;5012227;28;20485;-87
2021/03/11 07:34:24;;;;;;;2.73;1.70;;;11.30;95.60;;;;;;5013557;28;20481;-86
2021/03/11 07:36:51;;;;;;;2.33;1.60;;;11.40;95.70;;;;;;5013796;28;20541;-85
2021/03/11 07:39:23;;;;;;;4.47;1.53;;;11.40;95.70;;;;;;5014283;28;20446;-86
2021/03/11 07:41:50;;;;;;;1.37;1.27;;;11.50;95.60;;;;;;5014241;28;20454;-89
2021/03/11 07:44:16;;;;;;;3.07;1.47;;;11.40;95.70;;;;;;4979522;28;21056;-85
2021/03/11 07:46:43;;;;;;;1.40;1.30;;;11.60;95.60;;;;;;5012997;28;20589;-86
2021/03/11 07:49:11;;;;;;;1.63;1.20;;;11.60;95.50;;;;;;5014027;28;20497;-86
2021/03/11 07:51:39;;;;;;;2.00;1.70;;;11.70;95.40;;;;;;5014275;28;20450;-89
2021/03/11 07:54:07;;;;;;;3.23;1.77;;;11.80;95.70;;;;;;5014521;28;20537;-90
2021/03/11 07:56:33;;;;;;;2.70;1.67;;;11.70;95.60;;;;;;5014586;28;20472;-89
2021/03/11 07:59:04;;;;;;;1.83;1.60;;;11.80;95.50;;;;;;5014988;28;20541;-88
2021/03/11 08:01:34;;;;;;;3.97;2.00;;;11.90;95.40;;;;;;5013364;28;20501;-89
2021/03/11 08:04:01;;;;;;;1.50;1.20;;;11.90;95.50;;;;;;5013603;28;20881;-86
2021/03/11 08:06:29;;;;;;;1.77;1.63;;;12.00;95.30;;;;;;5013688;28;20640;-86
2021/03/11 08:08:56;;;;;;;1.80;1.30;;;12.10;95.50;;;;;;5014972;28;20443;-89
2021/03/11 08:11:33;;;;;;;2.57;1.73;;;12.10;95.50;;;;;;5014760;28;20454;-89
2021/03/11 08:14:22;;;;;;;2.27;1.60;;;12.10;95.40;;;;;;5014495;28;20438;-82
2021/03/11 08:16:53;;;;;;;1.60;1.40;;;12.20;95.20;;;;;;5012942;28;20822;-91
2021/03/11 08:19:52;;;;;;;1.30;1.20;;;12.30;95.30;;;;;;5013738;28;20465;-86
2021/03/11 08:22:52;;;;;;;2.90;1.60;;;12.40;95.20;;;;;;4986810;28;20535;-82
2021/03/11 08:25:47;;;;;;;2.40;1.53;;;12.50;95.00;;;;;;5001420;28;20499;-87
2021/03/11 08:28:39;;;;;;;1.33;1.10;;;12.40;94.80;;;;;;4978346;28;20447;-84
2021/03/11 08:31:06;;;;;;;1.03;0.73;;;12.60;94.60;;;;;;5011483;28;20541;-85
2021/03/11 08:33:52;;;;;;;5.73;1.40;;;12.70;94.40;;;;;;5013628;28;20452;-88
2021/03/11 08:36:39;;;;;;;2.00;1.50;;;12.90;94.40;;;;;;5011994;28;20553;-93
2021/03/11 08:39:36;;;;;;;1.37;1.23;;;12.90;94.30;;;;;;5016294;28;20789;-93
2021/03/11 08:42:52;;;;;;;1.20;1.10;;;13.00;94.30;;;;;;5007300;28;20492;-87
2021/03/11 08:46:01;;;;;;;2.80;1.80;;;13.00;94.20;;;;;;4993307;28;20488;-86
2021/03/11 08:48:39;;;;;;;1.90;1.10;;;11.70;93.50;;;;;;5004301;28;20494;-94
2021/03/11 08:51:08;;;;;;;1.33;1.23;;;13.10;94.40;;;;;;5014830;28;20556;-87
2021/03/11 08:53:47;;;;;;;2.17;1.40;;;13.20;94.30;;;;;;5014964;28;20485;-86
2021/03/11 08:56:46;;;;;;;2.03;1.20;;;13.30;94.00;;;;;;5014341;28;20463;-89
2021/03/11 08:59:17;;;;;;;1.90;1.10;;;13.50;94.00;;;;;;5015075;28;20863;-89
2021/03/11 09:01:45;;;;;;;4.13;1.77;;;13.60;94.10;;;;;;5015127;28;20480;-87
2021/03/11 09:04:40;;;;;;;1.43;1.33;;;13.50;93.60;;;;;;5017037;28;20541;-90
2021/03/11 09:07:08;;;;;;;1.40;1.10;;;13.70;93.50;;;;;;5016924;28;20512;-86
2021/03/11 09:09:36;;;;;;;1.60;1.20;;;13.80;93.70;;;;;;5016301;28;20512;-84
2021/03/11 09:12:06;;;;;;;2.10;1.20;;;13.80;93.20;;;;;;5017289;28;20485;-90
2021/03/11 09:14:34;;;;;;;1.30;1.20;;;13.60;93.80;;;;;;5016918;28;20945;-89
2021/03/11 09:17:05;;;;;;;1.17;1.10;;;13.60;94.60;;;;;;5016215;28;20465;-90
2021/03/11 09:19:42;;;;;;;1.60;1.40;;;13.50;94.10;;;;;;5015724;28;20560;-89
2021/03/11 09:22:27;;;;;;;1.97;1.87;;;13.40;94.50;;;;;;5017081;28;20461;-91
2021/03/11 09:25:08;;;;;;;1.43;1.27;;;13.30;94.50;;;;;;5016044;28;20467;-88
2021/03/11 09:27:36;;;;;;;3.13;2.10;;;13.20;94.70;;;;;;5016516;28;20835;-89
2021/03/11 09:30:07;;;;;;;1.27;1.17;;;13.20;94.90;;;;;;5015916;28;20551;-90
2021/03/11 09:32:35;;;;;;;1.60;1.23;;;13.10;94.90;;;;;;5015363;28;20541;-87
2021/03/11 09:35:07;;;;;;;1.17;1.10;;;13.10;94.70;;;;;;5016893;28;20483;-91
2021/03/11 09:37:48;;;;;;;2.40;1.00;;;13.10;95.00;;;;;;5033397;28;20468;-88
2021/03/11 09:40:20;;;;;;;1.43;1.20;;;13.20;95.10;;;;;;5039939;28;20463;-87
2021/03/11 09:43:13;;;;;;;1.30;1.20;;;13.30;94.90;;;;;;5029845;28;20499;-85
2021/03/11 09:45:45;;;;;;;3.00;1.67;;;13.10;94.90;;;;;;5037411;28;20499;-88
2021/03/11 09:48:14;;;;;;;1.77;1.00;;;13.10;94.90;;;;;;5040113;28;20461;-88
2021/03/11 09:50:50;;;;;;;1.20;1.10;;;13.10;95.00;;;;;;5039239;28;20988;-91
2021/03/11 09:53:18;;;;;;;4.03;1.67;;;13.00;95.20;;;;;;5023115;28;20951;-87
2021/03/11 09:55:45;;;;;;;1.30;1.20;;;13.10;95.40;;;;;;5026297;28;20540;-90
2021/03/11 09:58:18;;;;;;;1.70;1.10;;;13.10;94.90;;;;;;5015839;28;20451;-85
2021/03/11 10:00:45;;;;;;;1.33;1.20;;;13.20;95.00;;;;;;5015350;28;20531;-92
2021/03/11 10:03:22;;;;;;;1.23;1.10;;;13.20;95.20;;;;;;5016450;28;20464;-89
2021/03/11 10:05:57;;;;;;;1.80;1.50;;;13.30;95.10;;;;;;5015406;28;20535;-84
2021/03/11 10:08:26;;;;;;;1.20;1.10;;;13.40;95.00;;;;;;5015729;28;20499;-85
2021/03/11 10:11:07;;;;;;;1.57;0.90;;;13.40;95.00;;;;;;5015568;28;20889;-88
2021/03/11 10:13:40;;;;;;;3.30;0.90;;;13.50;94.80;;;;;;5016429;28;20527;-90
2021/03/11 10:16:07;;;;;;;1.23;1.17;;;13.60;94.70;;;;;;5014005;28;20457;-86
2021/03/11 10:18:34;;;;;;;1.23;1.13;;;13.60;94.80;;;;;;5014511;28;20555;-81
2021/03/11 10:21:08;;;;;;;1.97;1.10;;;13.70;95.10;;;;;;5014627;28;20568;-84
2021/03/11 10:23:38;;;;;;;1.53;1.13;;;14.00;94.90;;;;;;5014691;28;20451;-87
2021/03/11 10:26:14;;;;;;;1.23;1.03;;;14.30;94.90;;;;;;5014931;28;20500;-86
2021/03/11 10:28:42;;;;;;;0.90;0.90;;;14.00;94.70;;;;;;5015454;28;20512;-87
2021/03/11 10:32:05;;;;;;;1.27;1.17;;;13.90;95.20;;;;;;5014252;28;20510;-82
2021/03/11 10:34:44;;;;;;;0.83;0.83;;;14.00;94.90;;;;;;5014989;28;20461;-88
2021/03/11 10:37:25;;;;;;;1.07;0.90;;;14.00;95.00;;;;;;5015628;28;20821;-91
2021/03/11 10:39:55;;;;;;;1.63;1.03;;;13.90;95.20;;;;;;5018369;28;20453;-90
2021/03/11 10:42:21;;;;;;;1.90;0.87;;;14.00;95.30;;;;;;5015073;28;20473;-87
2021/03/11 10:44:56;;;;;;;0.73;0.73;;;13.90;95.30;;;;;;5011134;28;20503;-87
2021/03/11 10:47:23;;;;;;;1.10;1.00;;;14.00;95.20;;;;;;4996716;28;20541;-88
2021/03/11 10:49:49;;;;;;;2.27;1.10;;;14.10;95.60;;;;;;5001226;28;20562;-86
2021/03/11 10:52:18;;;;;;;2.60;1.47;;;14.20;95.30;;;;;;4995803;28;20549;-88
2021/03/11 10:54:45;;;;;;;0.87;0.67;;;14.30;95.60;;;;;;4995995;28;20455;-89
2021/03/11 10:57:13;;;;;;;0.70;0.70;;;14.30;95.70;;;;;;4995526;28;20492;-89
2021/03/11 10:59:57;;;;;;;0.80;0.80;;;14.30;95.80;;;;;;4994611;28;20502;-87
2021/03/11 11:02:25;;;;;;;0.60;0.60;;;14.40;96.70;;;;;;4994847;28;20458;-90
2021/03/11 11:04:51;;;;;;;1.77;1.10;;;14.20;96.30;;;;;;4996237;28;20482;-89
2021/03/11 11:07:20;;;;;;;0.70;0.70;;;14.10;96.60;;;;;;4995536;28;20490;-87
2021/03/11 11:09:47;;;;;;;1.20;1.10;;;14.10;97.00;;;;;;4996529;28;20458;-87
2021/03/11 11:12:16;;;;;;;0.87;0.87;;;14.10;97.00;;;;;;4995129;28;20465;-85
2021/03/11 11:14:43;;;;;;;2.60;1.00;;;14.10;97.80;;;;;;4995690;28;20450;-84
2021/03/11 11:17:11;;;;;;;2.00;0.77;;;14.00;98.10;;;;;;4994135;28;21062;-86
2021/03/11 11:19:38;;;;;;;1.50;0.90;;;13.90;98.80;;;;;;5008494;28;20470;-89
2021/03/11 11:22:08;;;;;;;2.93;0.80;;;13.80;99.60;;;;;;5031157;28;20508;-86
2021/03/11 11:24:35;;;;;;;1.20;1.00;;;13.70;99.90;;;;;;5016294;28;20451;-92
2021/03/11 11:27:02;;;;;;;2.50;0.80;;;13.50;99.90;;;;;;4995972;28;20542;-87
2021/03/11 11:29:30;;;;;;;3.20;1.13;;;13.40;99.90;;;;;;4996303;28;20553;-88
2021/03/11 11:31:57;;;;;;;1.67;1.07;;;13.30;99.90;;;;;;4994200;28;20458;-86
2021/03/11 11:34:24;;;;;;;2.30;1.00;;;13.30;99.90;;;;;;5023450;28;20470;-87
2021/03/11 11:36:51;;;;;;;8.17;1.47;;;13.00;99.90;;;;;;5037548;28;20462;-83
2021/03/11 11:39:17;;;;;;;0.80;0.80;;;12.90;99.90;;;;;;5038018;28;20459;-90
2021/03/11 11:41:45;;;;;;;0.87;0.80;;;12.90;99.90;;;;;;5018275;28;20447;-89
2021/03/11 11:44:12;;;;;;;1.40;1.10;;;12.90;99.90;;;;;;5016140;28;20925;-84
2021/03/11 11:46:40;;;;;;;0.90;0.90;;;12.80;99.90;;;;;;5013203;28;20888;-87
2021/03/11 11:49:07;;;;;;;3.40;0.90;;;12.90;99.90;;;;;;5013250;28;20475;-87
2021/03/11 11:51:33;;;;;;;3.03;0.83;;;12.90;99.90;;;;;;5014863;28;20485;-90
2021/03/11 11:53:59;;;;;;;1.30;1.20;;;12.90;99.90;;;;;;5015090;28;20460;-87
2021/03/11 11:56:27;;;;;;;1.47;1.37;;;12.70;99.90;;;;;;5014252;28;20468;-90
2021/03/11 11:58:54;;;;;;;1.57;1.47;;;12.80;99.90;;;;;;5014371;28;20505;-89
2021/03/11 12:01:21;;;;;;;2.80;1.50;;;12.90;99.90;;;;;;5012979;28;20823;-86
2021/03/11 12:03:50;;;;;;;8.50;1.73;;;12.90;99.90;;;;;;5014904;28;20939;-86
2021/03/11 12:06:16;;;;;;;1.60;1.07;;;13.00;99.90;;;;;;5013991;28;20500;-91
2021/03/11 12:08:44;;;;;;;0.90;0.90;;;13.20;99.90;;;;;;5013771;28;20467;-87
2021/03/11 12:11:10;;;;;;;0.70;0.70;;;13.40;99.90;;;;;;5013855;28;20454;-88
2021/03/11 12:13:37;;;;;;;0.80;0.80;;;13.50;99.90;;;;;;5013943;28;20480;-92
2021/03/11 12:16:05;;;;;;;6.30;1.17;;;13.70;99.90;;;;;;5013236;28;20886;-88
2021/03/11 12:18:34;;;;;;;0.60;0.60;;;13.90;99.90;;;;;;5013149;28;20457;-88
2021/03/11 12:21:01;;;;;;;1.17;1.00;;;13.90;99.90;;;;;;5014817;28;20793;-90
2021/03/11 12:23:27;;;;;;;1.07;1.07;;;13.80;99.90;;;;;;5015307;28;20961;-89
2021/03/11 12:32:57;;;;;;;1.53;1.00;;;14.10;99.90;;;;;;4971747;28;20519;-91
2021/03/11 12:35:27;;;;;;;0.70;0.70;;;14.20;99.90;;;;;;4975958;28;20480;-89
2021/03/11 12:37:54;;;;;;;0.70;0.70;;;14.30;99.90;;;;;;4976614;28;20865;-92
2021/03/11 12:40:21;;;;;;;0.83;0.80;;;14.80;99.90;;;;;;4970677;28;20464;-89
2021/03/11 12:42:48;;;;;;;0.60;0.60;;;14.60;99.90;;;;;;4973951;28;20448;-90
2021/03/11 12:45:20;;;;;;;0.87;0.87;;;14.80;99.90;;;;;;5017627;28;20956;-89
2021/03/11 12:47:47;;;;;;;0.70;0.60;;;14.60;99.90;;;;;;5017073;28;20815;-84
2021/03/11 12:50:16;;;;;;;0.70;0.60;;;14.40;99.90;;;;;;5016072;28;20562;-90
2021/03/11 12:52:43;;;;;;;0.93;0.90;;;14.40;99.90;;;;;;5017225;28;20450;-88
2021/03/11 12:55:10;;;;;;;0.60;0.60;;;14.40;99.90;;;;;;5017100;28;20475;-85
2021/03/11 12:57:36;;;;;;;1.77;0.70;;;14.60;99.90;;;;;;5018261;28;20930;-86
2021/03/11 13:00:04;;;;;;;0.83;0.70;;;14.70;99.90;;;;;;5017123;28;20450;-88
2021/03/11 13:02:30;;;;;;;0.63;0.63;;;14.60;99.90;;;;;;5015801;28;20479;-90
2021/03/11 13:04:57;;;;;;;1.13;1.03;;;14.70;99.90;;;;;;5016845;28;20895;-85
2021/03/11 13:07:27;;;;;;;1.20;1.17;;;14.80;99.90;;;;;;5015298;28;20499;-87
2021/03/11 13:09:53;;;;;;;0.97;0.77;;;14.80;99.90;;;;;;5016353;28;20505;-89
2021/03/11 13:12:20;;;;;;;1.07;0.90;;;14.80;99.90;;;;;;5013049;28;20561;-83